Time;durP1;ratioP1;P1;durP2;ratioP2;P2;SDS_P1;SDS_P2;PMS_P1;PMS_P2;Temp;Humidity;BMP_temperature;BMP_pressure;BME280_temperature;BME280_humidity;BME280_pressure;Samples;Min_cycle;Max_cycle;Signal;HPM_P1;HPM_P2
2023/04/11 00:00:54;;;;;;;42.22;28.65;;;27.50;99.90;;;;;;5036100;28;20364;-70
2023/04/11 00:03:21;;;;;;;57.17;30.75;;;27.50;99.90;;;;;;5036061;28;20025;-72
2023/04/11 00:05:47;;;;;;;61.28;36.35;;;27.50;99.90;;;;;;5036224;28;20091;-68
2023/04/11 00:08:14;;;;;;;51.50;30.20;;;27.50;99.90;;;;;;5034612;28;20061;-70
2023/04/11 00:10:41;;;;;;;45.40;28.35;;;27.70;99.90;;;;;;5035885;28;20043;-70
2023/04/11 00:13:09;;;;;;;53.08;31.05;;;27.60;99.90;;;;;;5035960;28;20026;-70
2023/04/11 00:15:38;;;;;;;50.53;30.77;;;27.50;99.90;;;;;;5034915;28;20042;-70
2023/04/11 00:18:05;;;;;;;47.60;30.65;;;27.70;99.90;;;;;;5035863;28;20032;-69
2023/04/11 00:20:32;;;;;;;50.00;31.40;;;27.80;99.90;;;;;;5035923;28;20439;-72
2023/04/11 00:22:58;;;;;;;48.05;32.72;;;27.50;99.90;;;;;;5034252;28;20497;-72
2023/04/11 00:25:25;;;;;;;52.38;33.60;;;27.70;99.90;;;;;;5021583;28;20030;-72
2023/04/11 00:27:52;;;;;;;61.30;34.88;;;27.70;99.90;;;;;;5034881;28;20064;-72
2023/04/11 00:30:19;;;;;;;58.67;33.80;;;27.70;99.90;;;;;;5035544;28;20018;-70
2023/04/11 00:32:46;;;;;;;61.42;37.55;;;27.90;99.90;;;;;;5035736;28;20380;-71
2023/04/11 00:35:13;;;;;;;54.83;32.42;;;27.80;99.90;;;;;;5035675;28;20052;-71
2023/04/11 00:37:43;;;;;;;42.53;29.10;;;27.80;99.90;;;;;;5035379;28;20052;-70
2023/04/11 00:40:11;;;;;;;44.30;26.33;;;27.80;99.90;;;;;;5035554;28;20101;-71
2023/04/11 00:42:39;;;;;;;44.60;31.17;;;27.80;99.90;;;;;;5035522;28;20024;-70
2023/04/11 00:45:06;;;;;;;45.35;31.52;;;28.00;99.90;;;;;;5035326;28;20162;-72
2023/04/11 00:47:33;;;;;;;40.38;27.45;;;28.00;99.90;;;;;;5033925;28;20025;-71
2023/04/11 00:50:00;;;;;;;36.60;25.13;;;28.00;99.90;;;;;;5035237;28;20104;-70
2023/04/11 00:52:27;;;;;;;43.15;26.63;;;28.10;99.90;;;;;;5035188;28;20104;-71
2023/04/11 00:54:53;;;;;;;30.98;24.70;;;28.10;99.90;;;;;;5034618;28;20028;-70
2023/04/11 00:57:24;;;;;;;43.50;26.90;;;28.40;99.90;;;;;;5034490;28;20117;-70
2023/04/11 00:59:51;;;;;;;35.13;24.27;;;28.30;99.90;;;;;;5035208;28;20437;-71
2023/04/11 01:02:18;;;;;;;64.78;48.05;;;28.40;99.90;;;;;;5034909;28;20059;-74
2023/04/11 01:04:45;;;;;;;212.63;146.35;;;28.30;99.90;;;;;;5034608;28;20025;-70
2023/04/11 01:07:12;;;;;;;90.32;64.22;;;28.50;99.90;;;;;;5031863;28;20025;-70
2023/04/11 01:09:39;;;;;;;58.00;43.25;;;28.60;99.90;;;;;;5034497;28;20079;-70
2023/04/11 01:12:06;;;;;;;116.20;74.63;;;28.60;99.90;;;;;;5034503;28;20386;-70
2023/04/11 01:14:32;;;;;;;87.70;57.60;;;28.70;99.90;;;;;;5031496;28;20393;-70
2023/04/11 01:17:00;;;;;;;45.15;31.25;;;28.80;99.90;;;;;;5034205;28;20108;-70
2023/04/11 01:19:28;;;;;;;43.53;31.23;;;28.70;99.90;;;;;;5034348;28;20091;-70
2023/04/11 01:21:56;;;;;;;66.28;38.28;;;28.70;99.90;;;;;;5034523;28;20104;-71
2023/04/11 01:24:23;;;;;;;87.47;50.28;;;28.80;99.90;;;;;;5034667;28;20021;-73
2023/04/11 01:26:50;;;;;;;65.10;41.28;;;28.80;99.90;;;;;;5033423;28;20068;-73
2023/04/11 01:29:17;;;;;;;52.22;34.08;;;28.90;99.90;;;;;;5034345;28;20040;-71
2023/04/11 01:31:44;;;;;;;45.58;34.80;;;29.10;99.90;;;;;;5034623;28;20025;-71
2023/04/11 01:34:13;;;;;;;111.68;60.47;;;29.10;99.90;;;;;;5034043;28;20029;-71
2023/04/11 01:36:41;;;;;;;69.32;45.20;;;29.10;99.90;;;;;;5032526;28;20048;-71
2023/04/11 01:39:08;;;;;;;62.85;39.30;;;29.20;99.90;;;;;;5032374;28;20386;-71
2023/04/11 01:41:35;;;;;;;68.00;43.55;;;29.30;99.90;;;;;;5032339;28;20029;-71
2023/04/11 01:44:04;;;;;;;78.57;50.22;;;29.30;99.90;;;;;;5032415;28;20575;-72
2023/04/11 01:46:31;;;;;;;49.20;32.55;;;29.40;99.90;;;;;;5033116;28;20533;-71
2023/04/11 01:49:00;;;;;;;42.58;30.98;;;29.50;99.90;;;;;;5033173;28;20025;-71
2023/04/11 01:51:27;;;;;;;114.75;64.18;;;29.50;99.90;;;;;;5033880;28;20017;-71
2023/04/11 01:53:53;;;;;;;377.83;224.75;;;29.50;99.90;;;;;;5034000;28;20453;-72
2023/04/11 01:56:20;;;;;;;135.38;84.18;;;29.60;99.90;;;;;;5033933;28;20079;-71
2023/04/11 01:58:47;;;;;;;85.82;49.65;;;29.70;99.90;;;;;;5033918;28;20532;-72
2023/04/11 02:01:17;;;;;;;52.65;31.17;;;29.80;99.90;;;;;;5034071;28;20466;-71
2023/04/11 02:03:44;;;;;;;47.60;30.92;;;29.90;99.90;;;;;;5033847;28;20509;-72
2023/04/11 02:06:11;;;;;;;49.78;31.55;;;29.90;99.90;;;;;;5033593;28;20040;-71
2023/04/11 02:08:37;;;;;;;49.65;33.78;;;30.00;99.90;;;;;;5034004;28;20026;-71
2023/04/11 02:11:06;;;;;;;45.10;32.05;;;30.00;99.90;;;;;;5033635;28;20529;-71
2023/04/11 02:13:34;;;;;;;47.58;33.80;;;30.00;99.90;;;;;;5033409;28;20033;-71
2023/04/11 02:16:13;;;;;;;56.65;34.88;;;29.90;99.90;;;;;;5033646;28;20033;-70
2023/04/11 02:18:41;;;;;;;47.83;36.05;;;30.00;99.90;;;;;;5033520;28;20497;-71
2023/04/11 02:21:08;;;;;;;62.20;37.95;;;30.10;99.90;;;;;;5033646;28;20386;-72
2023/04/11 02:23:35;;;;;;;51.47;34.13;;;30.10;99.90;;;;;;5033610;28;20022;-71
2023/04/11 02:26:02;;;;;;;46.88;34.33;;;30.10;99.90;;;;;;5033398;28;20471;-71
2023/04/11 02:28:29;;;;;;;55.90;36.40;;;30.20;99.90;;;;;;5033445;28;20475;-72
2023/04/11 02:30:56;;;;;;;55.35;33.05;;;30.30;99.90;;;;;;5033584;28;20045;-71
2023/04/11 02:33:23;;;;;;;54.05;33.67;;;30.40;99.90;;;;;;5033289;28;20028;-71
2023/04/11 02:35:49;;;;;;;48.20;33.03;;;30.40;99.90;;;;;;5033615;28;20423;-70
2023/04/11 02:38:16;;;;;;;49.10;31.95;;;30.50;99.90;;;;;;5032891;28;20029;-70
2023/04/11 02:40:42;;;;;;;50.78;30.83;;;30.60;99.90;;;;;;5033245;28;20382;-71
2023/04/11 02:43:09;;;;;;;36.03;27.98;;;30.70;99.90;;;;;;5033481;28;20537;-72
2023/04/11 02:45:35;;;;;;;42.00;31.23;;;30.70;99.90;;;;;;5034529;28;20036;-71
2023/04/11 02:48:05;;;;;;;45.60;31.67;;;30.80;99.90;;;;;;5033977;28;20041;-71
2023/04/11 02:50:32;;;;;;;39.67;28.10;;;30.80;99.90;;;;;;5034211;28;20017;-71
2023/04/11 02:52:58;;;;;;;39.33;30.48;;;30.80;99.90;;;;;;5034188;28;20017;-71
2023/04/11 02:55:25;;;;;;;38.08;28.88;;;30.80;99.90;;;;;;5033843;28;20382;-71
2023/04/11 02:57:52;;;;;;;36.45;27.17;;;30.80;99.90;;;;;;5032830;28;20455;-70
2023/04/11 03:00:20;;;;;;;38.25;25.58;;;30.80;99.90;;;;;;5032790;28;20045;-72
2023/04/11 03:02:47;;;;;;;36.67;26.90;;;31.00;99.90;;;;;;5032637;28;20021;-71
2023/04/11 03:05:14;;;;;;;35.95;25.42;;;31.10;99.90;;;;;;5032759;28;20079;-72
2023/04/11 03:07:41;;;;;;;32.08;25.13;;;31.10;99.90;;;;;;5032691;28;20032;-72
2023/04/11 03:10:08;;;;;;;35.63;26.33;;;31.20;99.90;;;;;;5030196;28;20079;-72
2023/04/11 03:12:35;;;;;;;32.67;23.85;;;31.20;99.90;;;;;;5032716;28;20269;-72
2023/04/11 03:15:02;;;;;;;30.77;22.77;;;31.20;99.90;;;;;;5032523;28;20042;-72
2023/04/11 03:17:28;;;;;;;36.17;25.05;;;31.40;99.90;;;;;;5032604;28;20037;-70
2023/04/11 03:19:55;;;;;;;34.17;25.90;;;31.40;99.90;;;;;;5032378;28;20033;-71
2023/04/11 03:22:22;;;;;;;45.45;26.58;;;31.50;99.90;;;;;;5031811;28;20626;-72
2023/04/11 03:24:49;;;;;;;44.10;35.75;;;31.50;99.90;;;;;;5029767;28;20496;-72
2023/04/11 03:27:15;;;;;;;38.65;27.58;;;31.50;99.90;;;;;;5030773;28;20393;-71
2023/04/11 03:29:42;;;;;;;42.80;31.13;;;31.50;99.90;;;;;;5031401;28;20100;-71
2023/04/11 03:32:08;;;;;;;34.63;25.92;;;31.50;99.90;;;;;;5030921;28;20014;-71
2023/04/11 03:34:35;;;;;;;42.78;31.15;;;31.60;99.90;;;;;;5033298;28;20027;-70
2023/04/11 03:37:01;;;;;;;31.67;25.15;;;31.70;99.90;;;;;;5031736;28;20033;-72
2023/04/11 03:39:28;;;;;;;31.05;23.55;;;31.70;99.90;;;;;;5031826;28;20020;-71
2023/04/11 03:41:54;;;;;;;46.15;25.08;;;31.70;99.90;;;;;;5032189;28;20018;-72
2023/04/11 03:44:21;;;;;;;37.55;25.52;;;31.70;99.90;;;;;;5032537;28;20033;-72
2023/04/11 03:46:47;;;;;;;39.65;25.88;;;31.90;99.90;;;;;;5033153;28;20072;-71
2023/04/11 03:49:14;;;;;;;35.97;24.17;;;31.90;99.90;;;;;;5033411;28;20529;-71
2023/04/11 03:51:40;;;;;;;32.60;23.88;;;31.90;99.90;;;;;;5037404;28;20053;-72
2023/04/11 03:54:07;;;;;;;27.08;22.25;;;31.90;99.90;;;;;;5036793;28;20401;-74
2023/04/11 03:56:33;;;;;;;27.52;21.00;;;31.80;99.90;;;;;;5036829;28;20386;-74
2023/04/11 03:59:00;;;;;;;30.40;21.65;;;31.70;99.90;;;;;;5036853;28;20114;-72
2023/04/11 04:01:27;;;;;;;34.10;24.05;;;31.70;99.90;;;;;;5036706;28;20029;-71
2023/04/11 04:03:53;;;;;;;30.50;20.77;;;31.90;99.90;;;;;;5036606;28;20025;-69
2023/04/11 04:06:20;;;;;;;30.88;22.02;;;32.00;99.90;;;;;;5036396;28;20025;-72
2023/04/11 04:08:46;;;;;;;26.15;20.75;;;32.00;99.90;;;;;;5036439;28;20014;-73
2023/04/11 04:11:13;;;;;;;33.67;23.15;;;32.10;99.90;;;;;;5036247;28;20099;-73
2023/04/11 04:13:40;;;;;;;32.65;24.13;;;32.20;99.90;;;;;;5036704;28;20438;-72
2023/04/11 04:16:06;;;;;;;32.15;22.13;;;32.20;99.90;;;;;;5036615;28;20025;-72
2023/04/11 04:18:33;;;;;;;27.75;21.35;;;32.20;99.90;;;;;;5035665;28;20537;-72
2023/04/11 04:20:59;;;;;;;28.42;22.23;;;32.40;99.90;;;;;;5035703;28;20018;-71
2023/04/11 04:23:26;;;;;;;29.33;21.75;;;32.40;99.90;;;;;;5035535;28;20374;-72
2023/04/11 04:25:53;;;;;;;25.48;19.90;;;32.40;99.90;;;;;;5035415;28;20071;-70
2023/04/11 04:28:21;;;;;;;27.13;20.48;;;;;;;;;;5035228;28;20087;-72
2023/04/11 04:30:53;;;;;;;28.17;20.08;;;32.60;99.90;;;;;;5035406;28;20104;-71
2023/04/11 04:33:20;;;;;;;24.95;19.92;;;32.70;99.90;;;;;;5035062;28;20025;-72
2023/04/11 04:35:47;;;;;;;24.70;19.90;;;32.70;99.90;;;;;;5035304;28;20014;-72
2023/04/11 04:38:16;;;;;;;27.42;20.10;;;32.70;99.90;;;;;;5035252;28;20079;-73
2023/04/11 04:40:43;;;;;;;24.90;19.98;;;32.80;99.90;;;;;;5034933;28;20030;-72
2023/04/11 04:43:16;;;;;;;24.27;20.38;;;32.80;99.90;;;;;;5035050;28;20018;-72
2023/04/11 04:45:44;;;;;;;32.45;20.45;;;32.70;99.90;;;;;;5035148;28;20032;-74
2023/04/11 04:48:13;;;;;;;22.77;18.45;;;32.60;99.90;;;;;;5034814;28;20032;-73
2023/04/11 04:50:40;;;;;;;26.27;19.30;;;32.70;99.90;;;;;;5035369;28;20018;-73
2023/04/11 04:53:06;;;;;;;24.00;18.85;;;32.90;99.90;;;;;;5035314;28;20047;-73
2023/04/11 04:55:33;;;;;;;24.95;18.80;;;32.90;99.90;;;;;;5035028;28;20466;-72
2023/04/11 04:58:00;;;;;;;27.42;19.20;;;33.00;99.90;;;;;;5031941;28;20482;-73
2023/04/11 05:00:26;;;;;;;23.20;18.85;;;33.20;99.90;;;;;;5030522;28;20032;-74
2023/04/11 05:02:54;;;;;;;26.20;18.63;;;33.30;99.90;;;;;;5019909;28;20479;-75
2023/04/11 05:05:20;;;;;;;28.40;19.63;;;33.30;99.90;;;;;;5015441;28;20026;-74
2023/04/11 05:07:47;;;;;;;27.13;19.40;;;33.30;99.90;;;;;;5015205;28;20027;-74
2023/04/11 05:10:13;;;;;;;25.02;19.42;;;33.40;99.90;;;;;;5014939;28;20021;-74
2023/04/11 05:12:40;;;;;;;20.95;16.40;;;33.60;99.90;;;;;;5015261;28;20486;-74
2023/04/11 05:15:10;;;;;;;78.53;69.38;;;33.70;99.90;;;;;;5015008;28;20132;-73
2023/04/11 05:17:37;;;;;;;122.13;92.70;;;33.70;99.90;;;;;;5014849;28;20402;-74
2023/04/11 05:20:05;;;;;;;507.45;457.92;;;33.70;99.90;;;;;;5015135;28;20025;-74
2023/04/11 05:22:32;;;;;;;19.05;15.15;;;33.80;99.90;;;;;;5014969;28;20033;-73
2023/04/11 05:24:59;;;;;;;859.25;778.85;;;33.90;99.90;;;;;;5023452;28;20026;-73
2023/04/11 05:27:26;;;;;;;697.92;636.70;;;34.00;99.90;;;;;;5034448;28;20033;-73
2023/04/11 05:29:53;;;;;;;1179.65;999.90;;;34.10;99.90;;;;;;5034625;28;20029;-74
2023/04/11 05:32:19;;;;;;;991.28;906.20;;;34.10;99.90;;;;;;5034409;28;20045;-74
2023/04/11 05:34:56;;;;;;;19.92;15.20;;;34.10;99.90;;;;;;5034248;28;20100;-73
2023/04/11 05:37:23;;;;;;;21.92;14.70;;;34.10;99.90;;;;;;5034028;28;20029;-73
2023/04/11 05:39:51;;;;;;;19.98;15.38;;;34.10;99.90;;;;;;5034263;28;20381;-76
2023/04/11 05:42:17;;;;;;;20.52;16.67;;;34.00;99.90;;;;;;5034077;28;20025;-76
2023/04/11 05:44:44;;;;;;;78.90;52.17;;;34.00;99.90;;;;;;5034240;28;20034;-74
2023/04/11 05:47:11;;;;;;;44.95;31.65;;;33.90;99.90;;;;;;5033975;28;20053;-74
2023/04/11 05:49:37;;;;;;;20.83;15.70;;;33.90;99.90;;;;;;5034055;28;20395;-73
2023/04/11 05:52:04;;;;;;;21.38;16.38;;;34.10;99.90;;;;;;5034058;28;20071;-74
2023/04/11 05:54:33;;;;;;;19.48;13.50;;;34.10;99.90;;;;;;5034157;28;20021;-72
2023/04/11 05:57:02;;;;;;;24.23;15.50;;;34.20;99.90;;;;;;5034213;28;20033;-73
2023/04/11 05:59:31;;;;;;;19.38;14.10;;;34.30;99.90;;;;;;5034059;28;20383;-73
2023/04/11 06:01:58;;;;;;;19.98;15.05;;;34.30;99.90;;;;;;5033980;28;20424;-73
2023/04/11 06:04:25;;;;;;;20.10;13.77;;;34.30;99.90;;;;;;5034000;28;20109;-73
2023/04/11 06:06:52;;;;;;;81.13;37.97;;;34.20;98.90;;;;;;5033878;28;20021;-72
2023/04/11 06:09:19;;;;;;;1370.20;999.90;;;34.20;98.10;;;;;;5033676;28;20026;-72
2023/04/11 06:11:45;;;;;;;864.03;784.80;;;34.10;98.80;;;;;;5033610;28;20021;-74
2023/04/11 06:14:12;;;;;;;1462.03;999.90;;;34.10;99.80;;;;;;5033413;28;20043;-73
2023/04/11 06:16:39;;;;;;;1339.35;999.90;;;34.20;99.30;;;;;;5033588;28;20052;-72
2023/04/11 06:19:05;;;;;;;1361.10;999.90;;;34.30;98.80;;;;;;5033821;28;20139;-72
2023/04/11 06:21:32;;;;;;;1439.75;999.90;;;34.40;98.40;;;;;;5033686;28;20025;-74
2023/04/11 06:24:08;;;;;;;1410.32;999.90;;;34.50;97.70;;;;;;5033432;28;20026;-74
2023/04/11 06:26:34;;;;;;;1403.47;999.90;;;34.60;96.50;;;;;;5033533;28;20025;-72
2023/04/11 06:29:04;;;;;;;1414.13;999.90;;;34.50;97.80;;;;;;5033550;28;20021;-72
2023/04/11 06:31:32;;;;;;;1427.45;999.90;;;34.60;97.60;;;;;;5033716;28;20474;-72
2023/04/11 06:33:59;;;;;;;1440.47;999.90;;;34.80;97.60;;;;;;5033489;28;20068;-71
2023/04/11 06:36:26;;;;;;;1417.97;999.90;;;34.80;97.00;;;;;;5033293;28;20061;-72
2023/04/11 06:38:53;;;;;;;1369.00;999.90;;;34.80;97.60;;;;;;5033505;28;20068;-72
2023/04/11 06:41:19;;;;;;;1489.10;999.90;;;34.70;97.30;;;;;;5033375;28;20013;-71
2023/04/11 06:43:46;;;;;;;294.98;229.82;;;34.70;96.70;;;;;;5021905;28;20072;-70
2023/04/11 06:46:12;;;;;;;17.73;13.50;;;34.60;96.70;;;;;;5029528;28;20022;-72
2023/04/11 06:48:39;;;;;;;1329.03;999.90;;;34.60;97.10;;;;;;5032365;28;20020;-71
2023/04/11 06:51:07;;;;;;;1472.07;999.90;;;34.70;97.50;;;;;;5018246;28;20028;-70
2023/04/11 06:53:34;;;;;;;1482.72;999.90;;;34.80;96.90;;;;;;5018396;28;20022;-70
2023/04/11 06:56:01;;;;;;;1506.43;999.90;;;34.80;94.20;;;;;;5024403;28;20057;-71
2023/04/11 06:58:27;;;;;;;1532.97;999.90;;;34.70;94.90;;;;;;5033305;28;20036;-69
2023/04/11 07:00:54;;;;;;;1532.57;999.90;;;34.60;95.80;;;;;;5033152;28;20022;-70
2023/04/11 07:03:23;;;;;;;1462.95;999.90;;;34.60;96.60;;;;;;5026982;28;20107;-71
2023/04/11 07:05:50;;;;;;;1419.95;999.90;;;34.60;96.80;;;;;;5014069;28;20030;-69
2023/04/11 07:08:17;;;;;;;1458.22;999.90;;;34.60;95.70;;;;;;5013205;28;20037;-71
2023/04/11 07:10:43;;;;;;;1535.40;999.90;;;34.50;96.30;;;;;;5013390;28;20018;-72
2023/04/11 07:13:10;;;;;;;1451.72;999.90;;;34.60;96.70;;;;;;5013418;28;20379;-72
2023/04/11 07:15:36;;;;;;;1389.80;999.90;;;34.70;96.80;;;;;;5012968;28;20038;-71
2023/04/11 07:18:03;;;;;;;1508.13;999.90;;;34.90;95.80;;;;;;5013401;28;20026;-70
2023/04/11 07:20:31;;;;;;;1462.15;999.90;;;35.00;94.70;;;;;;5013288;28;20030;-71
2023/04/11 07:22:58;;;;;;;1375.25;999.90;;;35.00;93.80;;;;;;5013052;28;20092;-72
2023/04/11 07:25:29;;;;;;;1499.43;999.90;;;35.00;95.20;;;;;;5016940;28;20026;-72
2023/04/11 07:27:59;;;;;;;1495.00;999.90;;;35.00;94.50;;;;;;5017096;28;20036;-71
2023/04/11 07:30:27;;;;;;;1367.13;999.90;;;35.10;95.30;;;;;;5017173;28;20030;-71
2023/04/11 07:32:53;;;;;;;1459.55;999.90;;;35.20;94.70;;;;;;5017129;28;20026;-71
2023/04/11 07:35:21;;;;;;;1484.43;999.90;;;35.30;94.30;;;;;;5016863;28;20022;-71
2023/04/11 07:37:47;;;;;;;1416.47;999.90;;;35.40;94.00;;;;;;5016806;28;20037;-71
2023/04/11 07:40:14;;;;;;;1489.18;999.90;;;35.30;93.20;;;;;;5016938;28;20045;-70
2023/04/11 07:42:41;;;;;;;1506.75;999.90;;;35.40;94.00;;;;;;5016774;28;20026;-75
2023/04/11 07:45:08;;;;;;;1486.25;999.90;;;35.50;92.60;;;;;;5016884;28;20056;-73
2023/04/11 07:47:34;;;;;;;1497.10;999.90;;;35.40;93.40;;;;;;5016734;28;20110;-71
2023/04/11 07:50:02;;;;;;;1430.28;999.90;;;35.30;93.30;;;;;;5016699;28;20490;-73
2023/04/11 07:52:28;;;;;;;1406.07;999.90;;;35.20;93.50;;;;;;5016563;28;20101;-72
2023/04/11 07:54:55;;;;;;;1275.68;999.90;;;35.20;91.60;;;;;;5016681;28;20490;-70
2023/04/11 07:57:21;;;;;;;1264.50;999.90;;;35.10;92.70;;;;;;5016556;28;20061;-73
2023/04/11 07:59:48;;;;;;;738.63;670.22;;;35.20;92.90;;;;;;5016398;28;20060;-72
2023/04/11 08:02:14;;;;;;;71.38;58.60;;;35.20;93.90;;;;;;5016516;28;20076;-71
2023/04/11 08:04:41;;;;;;;301.33;274.23;;;35.10;93.50;;;;;;5016414;28;20022;-71
2023/04/11 08:07:07;;;;;;;139.10;127.00;;;35.20;93.50;;;;;;5016140;28;20022;-73
2023/04/11 08:09:34;;;;;;;1355.55;999.90;;;35.20;93.50;;;;;;5016399;28;20018;-71
2023/04/11 08:12:00;;;;;;;1323.63;999.90;;;35.30;92.60;;;;;;5016347;28;20467;-69
2023/04/11 08:14:27;;;;;;;1347.43;999.90;;;35.30;91.50;;;;;;5015953;28;20034;-70
2023/04/11 08:16:54;;;;;;;1473.47;999.90;;;35.20;92.40;;;;;;5016324;28;20026;-69
2023/04/11 08:19:20;;;;;;;1467.93;999.90;;;35.10;92.60;;;;;;5019906;28;20026;-68
2023/04/11 08:21:47;;;;;;;1451.68;999.90;;;35.00;92.20;;;;;;5033071;28;20116;-70
2023/04/11 08:24:14;;;;;;;1312.47;999.90;;;35.00;94.00;;;;;;5035888;28;20021;-70
2023/04/11 08:26:40;;;;;;;1306.45;999.90;;;35.00;92.60;;;;;;5035765;28;20037;-69
2023/04/11 08:29:09;;;;;;;963.38;858.75;;;35.00;93.10;;;;;;5035137;28;20474;-70
2023/04/11 08:31:44;;;;;;;839.70;751.78;;;35.00;93.80;;;;;;5035791;28;20025;-69
2023/04/11 08:34:11;;;;;;;1271.10;999.90;;;35.00;93.50;;;;;;5035637;28;20510;-70
2023/04/11 08:36:38;;;;;;;1304.35;999.90;;;35.10;93.80;;;;;;5034916;28;20029;-70
2023/04/11 08:39:05;;;;;;;1462.90;999.90;;;35.10;93.00;;;;;;5035720;28;20438;-71
2023/04/11 08:41:32;;;;;;;1442.88;999.90;;;35.20;92.50;;;;;;5035575;28;20053;-72
2023/04/11 08:43:59;;;;;;;1368.10;999.90;;;35.30;93.40;;;;;;5035300;28;20079;-71
2023/04/11 08:46:27;;;;;;;569.60;496.45;;;35.20;93.60;;;;;;5035023;28;20022;-73
2023/04/11 08:48:54;;;;;;;1088.13;976.45;;;35.10;93.10;;;;;;5035428;28;20021;-72
2023/04/11 08:51:25;;;;;;;17.67;12.23;;;35.10;93.50;;;;;;5035223;28;20096;-72
2023/04/11 08:53:53;;;;;;;438.85;395.17;;;35.20;93.30;;;;;;5035212;28;20359;-75
2023/04/11 08:56:20;;;;;;;17.73;12.65;;;35.20;92.40;;;;;;5035857;28;20084;-73
2023/04/11 08:58:47;;;;;;;18.67;12.23;;;35.10;92.90;;;;;;5035370;28;20091;-76
2023/04/11 09:01:27;;;;;;;21.17;13.63;;;35.10;92.80;;;;;;5035519;28;20028;-75
2023/04/11 09:03:54;;;;;;;20.27;13.68;;;35.00;93.00;;;;;;5035796;28;20028;-74
2023/04/11 09:06:21;;;;;;;18.73;13.23;;;35.00;92.90;;;;;;5035684;28;20530;-73
2023/04/11 09:08:48;;;;;;;763.63;680.95;;;35.00;93.10;;;;;;5036194;28;20032;-74
2023/04/11 09:11:14;;;;;;;1316.25;999.90;;;35.00;93.00;;;;;;5035657;28;20454;-75
2023/04/11 09:13:41;;;;;;;991.25;872.97;;;35.00;92.50;;;;;;5035818;28;20052;-75
2023/04/11 09:16:12;;;;;;;1293.75;999.90;;;35.00;93.10;;;;;;5035534;28;20017;-75
2023/04/11 09:18:41;;;;;;;1313.50;999.90;;;35.00;93.70;;;;;;5035439;28;20022;-75
2023/04/11 09:21:10;;;;;;;1309.35;999.90;;;35.00;93.30;;;;;;5035815;28;20300;-73
2023/04/11 09:23:37;;;;;;;1385.55;999.90;;;34.90;93.50;;;;;;5034865;28;20022;-75
2023/04/11 09:26:08;;;;;;;1413.75;999.90;;;34.90;93.60;;;;;;5034542;28;20040;-75
2023/04/11 09:28:52;;;;;;;1397.22;999.90;;;34.90;92.40;;;;;;5032532;28;20033;-75
2023/04/11 09:31:20;;;;;;;1466.72;999.90;;;34.90;92.70;;;;;;5032837;28;20103;-76
2023/04/11 09:33:58;;;;;;;1444.05;999.90;;;34.90;93.70;;;;;;5034214;28;20018;-73
2023/04/11 09:36:26;;;;;;;1431.07;999.90;;;34.80;93.80;;;;;;5033992;28;20083;-74
2023/04/11 09:38:52;;;;;;;1023.63;794.00;;;34.80;94.00;;;;;;5034488;28;20017;-76
2023/04/11 09:41:31;;;;;;;631.63;500.40;;;34.80;93.80;;;;;;5034182;28;20363;-75
2023/04/11 09:43:58;;;;;;;411.35;296.17;;;34.80;93.40;;;;;;5031454;28;20430;-75
2023/04/11 09:46:24;;;;;;;566.40;507.52;;;34.90;93.30;;;;;;5034061;28;20018;-74
2023/04/11 09:48:53;;;;;;;26.35;19.00;;;34.80;93.90;;;;;;5033710;28;20107;-73
2023/04/11 09:51:20;;;;;;;21.33;15.98;;;34.80;93.00;;;;;;5032951;28;20021;-71
2023/04/11 09:53:47;;;;;;;20.90;16.38;;;34.70;92.90;;;;;;5031152;28;20052;-73
2023/04/11 09:56:14;;;;;;;139.60;125.07;;;34.80;92.60;;;;;;5033084;28;20017;-70
2023/04/11 09:58:41;;;;;;;115.25;72.68;;;34.80;93.00;;;;;;5030387;28;20390;-73
2023/04/11 10:01:09;;;;;;;263.13;89.93;;;34.70;92.70;;;;;;5033286;28;20418;-72
2023/04/11 10:03:39;;;;;;;204.60;81.28;;;34.60;92.80;;;;;;5033022;28;20030;-75
2023/04/11 10:06:07;;;;;;;276.27;118.38;;;34.60;93.00;;;;;;5033075;28;20026;-74
2023/04/11 10:08:36;;;;;;;387.33;188.10;;;34.70;93.30;;;;;;5028723;22;20095;-72
2023/04/11 10:11:06;;;;;;;38.42;23.50;;;34.60;93.40;;;;;;5007101;28;20030;-73
2023/04/11 10:13:44;;;;;;;60.47;28.17;;;34.70;93.10;;;;;;5004886;28;20172;-71
2023/04/11 10:16:13;;;;;;;600.30;52.33;;;34.60;92.80;;;;;;4996420;28;20407;-72
2023/04/11 10:18:50;;;;;;;67.00;25.67;;;34.60;93.10;;;;;;5002707;28;20045;-73
2023/04/11 10:21:38;;;;;;;48.20;26.98;;;34.60;93.70;;;;;;4999964;28;20011;-74
2023/04/11 10:24:07;;;;;;;38.17;25.83;;;34.50;94.00;;;;;;5001974;28;20488;-73
2023/04/11 10:26:56;;;;;;;80.88;43.63;;;34.50;93.80;;;;;;5001787;28;20546;-74
2023/04/11 10:29:45;;;;;;;63.05;36.20;;;34.50;93.60;;;;;;5001291;28;20022;-72
2023/04/11 10:32:18;;;;;;;113.47;71.80;;;34.40;93.80;;;;;;4999792;28;20104;-73
2023/04/11 10:34:53;;;;;;;65.18;40.60;;;34.40;93.80;;;;;;5003089;28;20037;-73
2023/04/11 10:37:31;;;;;;;70.03;44.17;;;34.40;93.30;;;;;;5000363;28;20360;-73
2023/04/11 10:40:00;;;;;;;49.97;32.20;;;34.40;93.70;;;;;;4999883;28;20109;-73
2023/04/11 10:42:37;;;;;;;46.75;26.50;;;34.40;93.90;;;;;;5002147;28;20022;-74
2023/04/11 10:45:26;;;;;;;47.60;32.08;;;34.40;94.40;;;;;;5001447;28;20020;-75
2023/04/11 10:47:55;;;;;;;140.27;74.60;;;34.40;93.80;;;;;;4993920;28;20022;-74
2023/04/11 10:50:25;;;;;;;134.90;71.97;;;34.30;93.90;;;;;;5002920;28;20320;-74
2023/04/11 10:53:19;;;;;;;73.85;43.28;;;34.30;93.50;;;;;;5000752;28;20018;-72
2023/04/11 10:55:47;;;;;;;73.57;47.65;;;34.20;93.90;;;;;;5001631;28;20034;-73
2023/04/11 10:58:18;;;;;;;55.42;36.03;;;34.10;94.40;;;;;;5001161;28;20445;-74
2023/04/11 11:00:49;;;;;;;72.03;48.77;;;34.10;94.50;;;;;;5000757;28;20529;-70
2023/04/11 11:03:18;;;;;;;89.53;51.87;;;34.10;94.40;;;;;;4999459;28;20026;-72
2023/04/11 11:05:46;;;;;;;57.42;38.92;;;34.10;95.30;;;;;;5000979;28;20034;-71
2023/04/11 11:08:13;;;;;;;192.82;130.63;;;34.10;95.00;;;;;;4993637;28;20133;-73
2023/04/11 11:10:45;;;;;;;61.42;42.72;;;34.00;95.30;;;;;;4992930;28;20034;-77
2023/04/11 11:13:16;;;;;;;89.45;58.53;;;34.00;95.60;;;;;;4992915;28;20029;-71
2023/04/11 11:15:51;;;;;;;215.23;148.32;;;34.00;95.60;;;;;;4991851;28;20033;-75
2023/04/11 11:18:18;;;;;;;112.85;86.05;;;33.90;96.00;;;;;;4991719;28;20534;-73
2023/04/11 11:20:44;;;;;;;57.03;39.67;;;33.90;96.30;;;;;;4991436;28;20034;-74
2023/04/11 11:23:11;;;;;;;124.32;83.40;;;33.90;96.40;;;;;;4993096;28;20391;-75
2023/04/11 11:25:37;;;;;;;65.05;46.03;;;33.90;96.20;;;;;;4993818;28;20031;-73
2023/04/11 11:28:06;;;;;;;44.28;29.65;;;33.80;96.10;;;;;;4992395;28;20030;-71
2023/04/11 11:30:34;;;;;;;42.25;30.98;;;33.80;95.80;;;;;;4993736;28;20018;-71
2023/04/11 11:33:22;;;;;;;68.78;48.40;;;33.70;96.00;;;;;;4993706;28;20026;-71
2023/04/11 11:35:54;;;;;;;54.15;35.65;;;33.70;96.10;;;;;;4993769;28;20388;-74
2023/04/11 11:38:24;;;;;;;53.30;35.63;;;33.70;96.20;;;;;;4993129;28;20041;-73
2023/04/11 11:40:51;;;;;;;57.70;39.90;;;33.60;96.70;;;;;;4992895;28;20435;-71
2023/04/11 11:43:18;;;;;;;57.67;35.50;;;33.60;96.70;;;;;;4993832;28;20026;-72
2023/04/11 11:45:45;;;;;;;49.50;34.13;;;33.60;96.70;;;;;;4992913;28;20403;-74
2023/04/11 11:48:31;;;;;;;54.70;35.05;;;33.60;97.30;;;;;;4994606;28;20031;-74
2023/04/11 11:50:58;;;;;;;58.45;38.72;;;33.60;97.40;;;;;;4994918;28;20180;-72
2023/04/11 11:53:25;;;;;;;54.45;34.47;;;33.60;97.70;;;;;;5002316;28;20356;-68
2023/04/11 11:55:53;;;;;;;54.92;34.47;;;33.50;97.50;;;;;;5003430;28;20044;-69
2023/04/11 11:58:20;;;;;;;54.65;32.05;;;33.40;97.80;;;;;;5002307;28;20475;-70
2023/04/11 12:00:50;;;;;;;62.42;38.53;;;33.40;97.60;;;;;;4992733;28;20502;-71
2023/04/11 12:03:21;;;;;;;67.68;44.13;;;33.40;97.80;;;;;;4993608;28;20038;-69
2023/04/11 12:05:50;;;;;;;124.67;78.03;;;33.40;98.30;;;;;;4992990;28;20053;-68
2023/04/11 12:08:21;;;;;;;117.82;76.15;;;33.30;98.10;;;;;;4991263;28;20096;-70
2023/04/11 12:10:48;;;;;;;55.95;37.40;;;33.30;98.20;;;;;;5000938;28;20041;-72
2023/04/11 12:13:15;;;;;;;101.00;65.20;;;33.30;98.20;;;;;;5007254;28;20398;-71
2023/04/11 12:15:48;;;;;;;84.40;48.17;;;33.30;98.60;;;;;;5003305;28;20019;-69
2023/04/11 12:18:15;;;;;;;50.05;32.28;;;33.30;98.70;;;;;;5001808;28;20062;-71
2023/04/11 12:20:41;;;;;;;65.40;37.33;;;33.20;98.60;;;;;;5005126;28;20018;-71
2023/04/11 12:23:08;;;;;;;74.45;44.55;;;33.10;98.60;;;;;;5005459;28;20021;-71